createdAt,value
2022-09-23T00:00:49.583Z,1.10
2022-09-23T00:03:16.759Z,1.20
2022-09-23T00:05:43.991Z,1.20
2022-09-23T00:08:11.266Z,1.40
2022-09-23T00:10:38.952Z,1.20
2022-09-23T00:13:05.915Z,1.13
2022-09-23T00:15:37.075Z,1.37
2022-09-23T00:18:03.834Z,1.13
2022-09-23T00:20:32.034Z,1.07
2022-09-23T00:22:58.629Z,1.10
2022-09-23T00:25:25.258Z,1.20
2022-09-23T00:27:51.919Z,1.30
2022-09-23T00:30:18.569Z,1.10
2022-09-23T00:32:45.173Z,1.27
2022-09-23T00:35:11.748Z,1.30
2022-09-23T00:37:38.411Z,1.30
2022-09-23T00:40:05.569Z,1.17
2022-09-23T00:42:32.246Z,1.20
2022-09-23T00:44:59.477Z,1.20
2022-09-23T00:47:32.819Z,1.27
2022-09-23T00:50:20.326Z,1.10
2022-09-23T00:52:46.951Z,1.00
2022-09-23T00:55:19.474Z,1.10
2022-09-23T00:57:46.117Z,1.20
2022-09-23T01:00:13.090Z,1.00
2022-09-23T01:02:39.747Z,1.07
2022-09-23T01:05:07.031Z,1.20
2022-09-23T01:07:34.518Z,1.10
2022-09-23T01:10:01.349Z,0.90
2022-09-23T01:13:12.849Z,1.20
2022-09-23T01:15:48.434Z,0.97
2022-09-23T01:18:40.749Z,1.30
2022-09-23T01:21:18.100Z,1.20
2022-09-23T01:24:31.561Z,1.07
2022-09-23T01:27:16.143Z,1.17
2022-09-23T01:30:16.640Z,1.00
2022-09-23T01:33:04.503Z,1.03
2022-09-23T01:35:57.032Z,1.27
2022-09-23T01:38:27.346Z,1.10
2022-09-23T01:41:00.789Z,1.00
2022-09-23T01:43:55.177Z,1.10
2022-09-23T01:46:29.553Z,0.93
2022-09-23T01:49:19.407Z,1.10
2022-09-23T01:51:49.348Z,1.00
2022-09-23T01:54:22.093Z,1.30
2022-09-23T01:56:56.600Z,1.20
2022-09-23T01:59:28.970Z,1.00
2022-09-23T02:02:02.956Z,1.00
2022-09-23T02:04:39.880Z,1.23
2022-09-23T02:07:25.542Z,1.00
2022-09-23T02:10:06.136Z,0.90
2022-09-23T02:12:33.472Z,0.90
2022-09-23T02:15:06.806Z,0.80
2022-09-23T02:17:44.827Z,1.00
2022-09-23T02:20:12.467Z,0.87
2022-09-23T02:23:01.554Z,1.00
2022-09-23T02:25:33.847Z,0.97
2022-09-23T02:28:06.844Z,0.90
2022-09-23T02:30:38.929Z,1.00
2022-09-23T02:33:11.752Z,0.90
2022-09-23T02:35:48.907Z,1.03
2022-09-23T02:38:40.593Z,1.07
2022-09-23T02:41:32.544Z,0.87
2022-09-23T02:44:02.029Z,1.00
2022-09-23T02:46:30.011Z,0.90
2022-09-23T02:49:16.309Z,0.70
2022-09-23T02:51:42.948Z,0.90
2022-09-23T02:54:14.804Z,0.90
2022-09-23T02:56:41.719Z,1.00
2022-09-23T02:59:08.768Z,1.00
2022-09-23T03:01:54.186Z,1.10
2022-09-23T03:04:23.561Z,1.00
2022-09-23T03:07:17.665Z,1.00
2022-09-23T03:10:09.528Z,0.90
2022-09-23T03:12:52.887Z,1.00
2022-09-23T03:15:40.914Z,0.90
2022-09-23T03:18:21.785Z,0.80
2022-09-23T03:21:09.659Z,0.80
2022-09-23T03:23:37.720Z,0.83
2022-09-23T03:26:11.793Z,0.90
2022-09-23T03:28:38.540Z,1.10
2022-09-23T03:31:05.238Z,0.90
2022-09-23T03:33:31.873Z,0.80
2022-09-23T03:36:22.656Z,0.90
2022-09-23T03:38:51.008Z,1.10
2022-09-23T03:41:23.127Z,0.93
2022-09-23T03:43:49.814Z,0.90
2022-09-23T03:46:17.626Z,1.10
2022-09-23T03:48:45.419Z,0.90
2022-09-23T03:51:21.346Z,0.77
2022-09-23T03:53:48.280Z,0.80
2022-09-23T03:56:15.058Z,0.70
2022-09-23T03:58:41.732Z,0.90
2022-09-23T04:01:08.425Z,0.80
2022-09-23T04:03:35.081Z,0.80
2022-09-23T04:06:01.679Z,1.03
2022-09-23T04:08:28.330Z,0.83
2022-09-23T04:11:01.888Z,0.90
2022-09-23T04:13:29.366Z,0.97
2022-09-23T04:15:55.985Z,0.90
2022-09-23T04:18:23.246Z,1.00
2022-09-23T04:20:49.907Z,1.00
2022-09-23T04:23:16.514Z,0.80
2022-09-23T04:25:47.146Z,1.00
2022-09-23T04:28:13.864Z,1.10
2022-09-23T04:30:45.953Z,1.00
2022-09-23T04:33:13.415Z,0.90
2022-09-23T04:35:40.563Z,1.00
2022-09-23T04:38:07.330Z,0.80
2022-09-23T04:40:34.210Z,0.90
2022-09-23T04:43:00.892Z,0.83
2022-09-23T04:45:27.649Z,0.77
2022-09-23T04:47:55.856Z,1.10
2022-09-23T04:50:22.444Z,0.87
2022-09-23T04:52:49.089Z,0.90
2022-09-23T04:55:15.682Z,0.87
2022-09-23T04:57:42.280Z,0.87
2022-09-23T05:00:10.254Z,0.80
2022-09-23T05:02:45.692Z,0.70
2022-09-23T05:05:12.935Z,1.00
2022-09-23T05:07:40.251Z,0.80
2022-09-23T05:10:07.623Z,0.90
2022-09-23T05:12:34.224Z,1.00
2022-09-23T05:15:00.811Z,0.90
2022-09-23T05:17:29.093Z,0.97
2022-09-23T05:19:57.822Z,0.80
2022-09-23T05:22:26.437Z,0.70
2022-09-23T05:24:53.435Z,0.80
2022-09-23T05:27:20.389Z,1.00
2022-09-23T05:29:47.572Z,0.90
2022-09-23T05:32:15.201Z,0.70
2022-09-23T05:34:41.772Z,0.87
2022-09-23T05:37:08.538Z,0.80
2022-09-23T05:39:35.176Z,0.80
2022-09-23T05:42:01.790Z,0.80
2022-09-23T05:44:28.426Z,0.70
2022-09-23T05:46:55.165Z,0.73
2022-09-23T05:49:33.032Z,0.80
2022-09-23T05:52:08.573Z,1.00
2022-09-23T05:54:35.499Z,0.70
2022-09-23T05:57:04.981Z,0.80
2022-09-23T05:59:31.798Z,0.90
2022-09-23T06:01:58.946Z,0.90
2022-09-23T06:04:25.652Z,0.90
2022-09-23T06:06:53.072Z,1.03
2022-09-23T06:09:19.705Z,0.97
2022-09-23T06:11:46.743Z,0.80
2022-09-23T06:14:14.509Z,0.90
2022-09-23T06:16:41.109Z,0.83
2022-09-23T06:19:07.741Z,0.80
2022-09-23T06:21:35.542Z,0.83
2022-09-23T06:24:02.920Z,0.90
2022-09-23T06:26:33.484Z,0.80
2022-09-23T06:29:01.578Z,0.73
2022-09-23T06:31:28.341Z,0.70
2022-09-23T06:34:06.293Z,0.80
2022-09-23T06:36:43.072Z,0.77
2022-09-23T06:39:11.464Z,0.80
2022-09-23T06:41:39.162Z,0.50
2022-09-23T06:44:06.078Z,0.50
2022-09-23T06:46:32.816Z,0.60
2022-09-23T06:48:59.473Z,0.67
2022-09-23T06:51:26.178Z,0.50
2022-09-23T06:53:53.911Z,0.60
2022-09-23T06:56:21.929Z,0.50
2022-09-23T06:58:48.738Z,0.60
2022-09-23T07:01:16.515Z,0.57
2022-09-23T07:03:43.745Z,0.70
2022-09-23T07:06:10.409Z,0.50
2022-09-23T07:08:37.296Z,0.40
2022-09-23T07:11:06.025Z,0.60
2022-09-23T07:13:33.502Z,0.50
2022-09-23T07:16:01.774Z,0.40
2022-09-23T07:18:35.574Z,0.43
2022-09-23T07:21:15.357Z,0.40
2022-09-23T07:23:46.221Z,0.57
2022-09-23T07:26:13.649Z,0.67
2022-09-23T07:28:40.318Z,0.50
2022-09-23T07:31:09.452Z,0.50
2022-09-23T07:33:36.909Z,0.40
2022-09-23T07:36:08.290Z,0.57
2022-09-23T07:38:35.462Z,0.57
2022-09-23T07:41:06.050Z,0.70
2022-09-23T07:43:33.026Z,0.40
2022-09-23T07:46:02.087Z,0.60
2022-09-23T07:48:33.847Z,0.50
2022-09-23T07:51:01.761Z,0.53
2022-09-23T07:53:28.525Z,0.40
2022-09-23T07:55:55.970Z,0.50
2022-09-23T07:58:22.877Z,0.70
2022-09-23T08:00:51.095Z,0.60
2022-09-23T08:03:17.979Z,0.63
2022-09-23T08:05:45.878Z,0.60
2022-09-23T08:08:14.060Z,0.50
2022-09-23T08:10:40.682Z,0.50
2022-09-23T08:13:07.286Z,0.33
2022-09-23T08:15:34.213Z,0.50
2022-09-23T08:18:01.773Z,0.50
2022-09-23T08:20:47.834Z,0.40
2022-09-23T08:23:15.436Z,0.60
2022-09-23T08:25:44.595Z,0.50
2022-09-23T08:28:12.756Z,0.50
2022-09-23T08:30:39.633Z,0.50
2022-09-23T08:33:06.264Z,0.50
2022-09-23T08:35:32.900Z,0.60
2022-09-23T08:37:59.580Z,0.50
2022-09-23T08:40:26.247Z,0.47
2022-09-23T08:42:52.903Z,0.50
2022-09-23T08:45:23.272Z,0.50
2022-09-23T08:48:01.809Z,0.40
2022-09-23T08:50:30.513Z,0.40
2022-09-23T08:53:01.060Z,0.60
2022-09-23T08:55:49.207Z,0.60
2022-09-23T08:58:52.529Z,0.50
2022-09-23T09:01:42.787Z,0.70
2022-09-23T09:04:23.084Z,0.67
2022-09-23T09:07:12.467Z,0.60
2022-09-23T09:09:48.836Z,0.60
2022-09-23T09:12:19.494Z,0.50
2022-09-23T09:14:46.058Z,0.40
2022-09-23T09:17:24.690Z,0.53
2022-09-23T09:20:13.725Z,0.70
2022-09-23T09:23:00.744Z,0.40
2022-09-23T09:26:04.114Z,0.60
2022-09-23T09:28:45.067Z,0.50
2022-09-23T09:31:14.881Z,0.60
2022-09-23T09:33:46.718Z,0.60
2022-09-23T09:36:30.849Z,0.60
2022-09-23T09:39:00.773Z,0.60
2022-09-23T09:41:31.155Z,0.70
2022-09-23T09:43:59.416Z,0.60
2022-09-23T09:46:38.069Z,0.60
2022-09-23T09:49:23.213Z,0.40
2022-09-23T09:52:12.082Z,0.60
2022-09-23T09:54:39.565Z,0.50
2022-09-23T09:57:08.244Z,0.50
2022-09-23T09:59:35.060Z,0.70
2022-09-23T10:02:21.412Z,0.50
2022-09-23T10:04:55.306Z,0.60
2022-09-23T10:07:25.719Z,0.50
2022-09-23T10:09:52.337Z,0.60
2022-09-23T10:12:21.282Z,0.60
2022-09-23T10:14:52.247Z,0.60
2022-09-23T10:17:32.569Z,0.60
2022-09-23T10:20:06.791Z,0.60
2022-09-23T10:22:36.313Z,0.80
2022-09-23T10:25:16.357Z,0.70
2022-09-23T10:27:45.527Z,0.60
2022-09-23T10:30:15.164Z,0.70
2022-09-23T10:32:44.102Z,0.60
2022-09-23T10:35:13.386Z,0.50
2022-09-23T10:38:09.430Z,0.60
2022-09-23T10:40:59.085Z,0.70
2022-09-23T10:43:52.407Z,0.60
2022-09-23T10:46:38.904Z,0.60
2022-09-23T10:49:31.021Z,0.47
2022-09-23T10:52:19.454Z,0.60
2022-09-23T10:54:58.985Z,0.60
2022-09-23T10:57:44.738Z,0.50
2022-09-23T11:00:23.134Z,0.50
2022-09-23T11:03:18.948Z,0.43
2022-09-23T11:05:45.632Z,0.60
2022-09-23T11:08:53.651Z,0.40
2022-09-23T11:11:40.968Z,0.40
2022-09-23T11:14:16.889Z,0.40
2022-09-23T11:17:04.045Z,0.40
2022-09-23T11:20:09.545Z,0.45
2022-09-23T11:23:13.190Z,0.50
2022-09-23T11:25:54.641Z,0.50
2022-09-23T11:28:45.836Z,0.40
2022-09-23T11:31:34.091Z,0.40
2022-09-23T11:34:30.889Z,0.40
2022-09-23T11:37:18.782Z,0.55
2022-09-23T11:39:59.783Z,0.45
2022-09-23T11:42:29.420Z,0.52
2022-09-23T11:45:29.314Z,0.47
2022-09-23T11:48:03.138Z,0.47
2022-09-23T11:50:46.518Z,0.50
2022-09-23T11:53:22.872Z,0.30
2022-09-23T11:56:13.636Z,0.40
2022-09-23T11:58:59.577Z,0.50
2022-09-23T12:01:37.736Z,0.60
2022-09-23T12:04:16.487Z,0.60
2022-09-23T12:06:48.240Z,0.60
2022-09-23T12:09:53.925Z,0.68
2022-09-23T12:12:37.050Z,0.50
2022-09-23T12:15:16.581Z,0.57
2022-09-23T12:17:56.993Z,0.70
2022-09-23T12:20:28.395Z,0.90
2022-09-23T12:23:34.102Z,0.60
2022-09-23T12:26:02.411Z,0.80
2022-09-23T12:28:37.606Z,0.50
2022-09-23T12:31:05.898Z,0.60
2022-09-23T12:33:33.130Z,0.82
2022-09-23T12:36:04.046Z,0.70
2022-09-23T12:38:37.398Z,0.40
2022-09-23T12:41:22.597Z,0.60
2022-09-23T12:44:08.278Z,0.60
2022-09-23T12:46:34.876Z,0.57
2022-09-23T12:49:02.815Z,0.57
2022-09-23T12:51:34.619Z,0.47
2022-09-23T12:54:04.219Z,0.50
2022-09-23T12:56:36.890Z,0.47
2022-09-23T12:59:28.979Z,0.50
2022-09-23T13:01:55.760Z,0.40
2022-09-23T13:04:54.274Z,0.50
2022-09-23T13:10:12.828Z,0.60
2022-09-23T13:12:39.969Z,0.47
2022-09-23T13:15:28.983Z,0.50
2022-09-23T13:18:20.605Z,0.57
2022-09-23T13:20:48.706Z,0.47
2022-09-23T13:23:33.414Z,0.50
2022-09-23T13:26:01.854Z,0.47
2022-09-23T13:28:43.382Z,0.30
2022-09-23T13:31:14.116Z,0.52
2022-09-23T13:33:56.666Z,0.35
2022-09-23T13:36:23.431Z,0.50
2022-09-23T13:38:50.063Z,0.50
2022-09-23T13:41:18.930Z,0.40
2022-09-23T13:43:49.911Z,0.45
2022-09-23T13:46:21.220Z,0.60
2022-09-23T13:48:48.934Z,0.40
2022-09-23T13:51:27.774Z,0.60
2022-09-23T13:53:55.415Z,0.50
2022-09-23T13:56:22.222Z,0.47
2022-09-23T13:58:48.814Z,0.45
2022-09-23T14:01:25.955Z,0.55
2022-09-23T14:03:52.614Z,0.50
2022-09-23T14:06:19.277Z,0.38
2022-09-23T14:08:47.530Z,0.40
2022-09-23T14:11:18.278Z,0.50
2022-09-23T14:13:45.789Z,0.30
2022-09-23T14:16:14.876Z,0.50
2022-09-23T14:18:44.234Z,0.40
2022-09-23T14:21:27.122Z,0.50
2022-09-23T14:23:53.728Z,0.50
2022-09-23T14:26:21.016Z,0.50
2022-09-23T14:28:47.631Z,0.30
2022-09-23T14:31:14.276Z,0.60
2022-09-23T14:33:41.521Z,0.52
2022-09-23T14:36:30.622Z,0.37
2022-09-23T14:39:05.233Z,0.40
2022-09-23T14:41:38.636Z,0.30
2022-09-23T14:44:05.974Z,0.35
2022-09-23T14:46:36.391Z,0.40
2022-09-23T14:49:13.721Z,0.40
2022-09-23T14:51:53.248Z,0.40
2022-09-23T14:54:39.659Z,0.40
2022-09-23T14:57:27.498Z,0.40
2022-09-23T15:00:06.591Z,0.40
2022-09-23T15:02:37.629Z,0.45
2022-09-23T15:05:17.080Z,0.67
2022-09-23T15:07:44.533Z,0.80
2022-09-23T15:10:28.740Z,0.80
2022-09-23T15:12:56.582Z,0.80
2022-09-23T15:15:25.486Z,0.80
2022-09-23T15:17:52.075Z,0.70
2022-09-23T15:20:23.421Z,0.80
2022-09-23T15:22:51.559Z,0.60
2022-09-23T15:25:23.021Z,0.70
2022-09-23T15:28:08.395Z,0.50
2022-09-23T15:30:35.634Z,0.50
2022-09-23T15:33:02.720Z,0.50
2022-09-23T15:35:31.897Z,0.50
2022-09-23T15:38:00.382Z,0.57
2022-09-23T15:40:32.631Z,0.50
2022-09-23T15:43:01.180Z,0.50
2022-09-23T15:45:38.313Z,0.60
2022-09-23T15:48:08.061Z,0.43
2022-09-23T15:50:35.452Z,0.50
2022-09-23T15:53:02.047Z,0.40
2022-09-23T15:55:28.718Z,0.30
2022-09-23T15:57:55.395Z,0.50
2022-09-23T16:00:22.018Z,0.60
2022-09-23T16:02:49.049Z,0.50
2022-09-23T16:05:34.749Z,0.53
2022-09-23T16:08:06.416Z,0.40
2022-09-23T16:10:35.999Z,0.47
2022-09-23T16:13:03.499Z,0.50
2022-09-23T16:15:31.264Z,0.40
2022-09-23T16:17:58.478Z,0.40
2022-09-23T16:20:26.231Z,0.43
2022-09-23T16:23:03.050Z,0.50
2022-09-23T16:25:31.570Z,0.40
2022-09-23T16:27:58.373Z,0.50
2022-09-23T16:30:26.047Z,0.33
2022-09-23T16:32:52.780Z,0.50
2022-09-23T16:35:20.443Z,0.40
2022-09-23T16:37:50.668Z,0.47
2022-09-23T16:40:21.716Z,0.30
2022-09-23T16:42:48.742Z,0.37
2022-09-23T16:45:17.578Z,0.33
2022-09-23T16:47:44.761Z,0.50
2022-09-23T16:50:15.299Z,0.47
2022-09-23T16:52:42.054Z,0.40
2022-09-23T16:55:09.758Z,0.40
2022-09-23T16:57:37.148Z,0.90
2022-09-23T17:00:33.020Z,0.53
2022-09-23T17:03:18.718Z,0.60
2022-09-23T17:05:46.791Z,0.97
2022-09-23T17:08:14.038Z,0.90
2022-09-23T17:10:41.419Z,1.10
2022-09-23T17:13:08.241Z,1.20
2022-09-23T17:15:38.912Z,1.20
2022-09-23T17:18:06.364Z,1.13
2022-09-23T17:20:33.029Z,1.20
2022-09-23T17:22:59.691Z,1.23
2022-09-23T17:25:26.426Z,1.40
2022-09-23T17:27:53.056Z,1.30
2022-09-23T17:30:19.682Z,1.17
2022-09-23T17:32:47.169Z,1.30
2022-09-23T17:35:13.912Z,1.20
2022-09-23T17:37:40.502Z,1.33
2022-09-23T17:40:07.662Z,1.13
2022-09-23T17:42:35.533Z,0.90
2022-09-23T17:45:02.190Z,1.10
2022-09-23T17:47:28.777Z,1.20
2022-09-23T17:49:56.176Z,1.03
2022-09-23T17:52:22.786Z,1.20
2022-09-23T17:54:49.406Z,1.30
2022-09-23T17:57:16.002Z,1.10
2022-09-23T17:59:42.770Z,1.30
2022-09-23T18:02:14.905Z,0.90
2022-09-23T18:04:42.230Z,1.20
2022-09-23T18:07:08.808Z,1.07
2022-09-23T18:09:35.464Z,1.00
2022-09-23T18:12:02.206Z,0.90
2022-09-23T18:14:29.251Z,1.07
2022-09-23T18:16:55.830Z,1.10
2022-09-23T18:19:23.267Z,0.97
2022-09-23T18:21:51.647Z,1.00
2022-09-23T18:24:31.979Z,0.90
2022-09-23T18:27:00.068Z,1.20
2022-09-23T18:29:26.916Z,1.23
2022-09-23T18:31:53.633Z,1.20
2022-09-23T18:34:20.445Z,1.37
2022-09-23T18:36:47.116Z,1.30
2022-09-23T18:39:13.737Z,1.23
2022-09-23T18:41:41.097Z,1.40
2022-09-23T18:44:07.876Z,1.60
2022-09-23T18:46:34.602Z,1.50
2022-09-23T18:49:19.708Z,1.33
2022-09-23T18:51:50.920Z,1.30
2022-09-23T18:54:17.674Z,1.50
2022-09-23T18:56:44.636Z,1.50
2022-09-23T18:59:17.485Z,1.53
2022-09-23T19:01:45.647Z,1.60
2022-09-23T19:04:13.720Z,1.60
2022-09-23T19:06:40.384Z,1.33
2022-09-23T19:09:07.151Z,1.53
2022-09-23T19:11:36.207Z,1.40
2022-09-23T19:14:06.825Z,1.43
2022-09-23T19:16:34.806Z,1.30
2022-09-23T19:19:02.054Z,1.50
2022-09-23T19:21:29.194Z,1.30
2022-09-23T19:23:57.550Z,1.20
2022-09-23T19:26:28.341Z,1.40
2022-09-23T19:28:55.955Z,1.30
2022-09-23T19:31:24.694Z,1.20
2022-09-23T19:34:01.611Z,1.30
2022-09-23T19:36:32.074Z,2.27
2022-09-23T19:39:00.467Z,2.10
2022-09-23T19:41:31.641Z,1.90
2022-09-23T19:44:03.252Z,1.80
2022-09-23T19:46:31.068Z,1.60
2022-09-23T19:48:58.343Z,1.83
2022-09-23T19:51:25.026Z,1.90
2022-09-23T19:53:51.804Z,1.70
2022-09-23T19:56:18.449Z,1.80
2022-09-23T19:58:47.199Z,1.90
2022-09-23T20:01:16.107Z,1.47
2022-09-23T20:03:44.189Z,1.50
2022-09-23T20:06:11.131Z,1.60
2022-09-23T20:08:38.151Z,1.70
2022-09-23T20:11:24.811Z,1.40
2022-09-23T20:13:59.281Z,1.40
2022-09-23T20:16:28.026Z,1.67
2022-09-23T20:18:55.503Z,1.60
2022-09-23T20:21:22.266Z,1.50
2022-09-23T20:23:48.916Z,1.50
2022-09-23T20:26:33.977Z,1.50
2022-09-23T20:29:01.370Z,1.40
2022-09-23T20:31:28.650Z,1.33
2022-09-23T20:33:59.223Z,1.50
2022-09-23T20:36:26.653Z,1.47
2022-09-23T20:39:00.720Z,1.53
2022-09-23T20:41:28.161Z,1.43
2022-09-23T20:43:55.367Z,1.63
2022-09-23T20:46:23.312Z,1.60
2022-09-23T20:48:50.086Z,1.50
2022-09-23T20:51:16.822Z,1.50
2022-09-23T20:53:45.709Z,1.67
2022-09-23T20:56:13.829Z,1.40
2022-09-23T20:58:40.442Z,1.53
2022-09-23T21:01:10.791Z,1.23
2022-09-23T21:03:42.125Z,1.30
2022-09-23T21:06:09.345Z,1.40
2022-09-23T21:08:36.523Z,1.10
2022-09-23T21:11:04.992Z,1.50
2022-09-23T21:13:32.162Z,1.40
2022-09-23T21:16:09.709Z,1.30
2022-09-23T21:18:37.186Z,1.40
2022-09-23T21:21:04.235Z,1.33
2022-09-23T21:23:32.449Z,1.50
2022-09-23T21:26:06.542Z,1.60
2022-09-23T21:28:34.369Z,1.40
2022-09-23T21:31:02.200Z,1.60
2022-09-23T21:33:30.308Z,1.70
2022-09-23T21:35:57.880Z,1.73
2022-09-23T21:38:24.535Z,1.70
2022-09-23T21:41:01.082Z,1.77
2022-09-23T21:43:29.485Z,1.53
2022-09-23T21:45:59.607Z,1.50
2022-09-23T21:48:30.153Z,1.50
2022-09-23T21:50:58.002Z,1.80
2022-09-23T21:53:24.926Z,1.73
2022-09-23T21:55:51.581Z,1.70
2022-09-23T21:58:18.203Z,1.63
2022-09-23T22:00:44.903Z,1.80
2022-09-23T22:03:12.087Z,1.77
2022-09-23T22:05:43.897Z,1.63
2022-09-23T22:08:10.655Z,1.50
2022-09-23T22:10:37.454Z,1.60
2022-09-23T22:13:08.151Z,1.60
2022-09-23T22:15:38.610Z,1.40
2022-09-23T22:18:05.850Z,1.70
2022-09-23T22:20:33.501Z,1.70
2022-09-23T22:23:00.086Z,1.50
2022-09-23T22:25:27.182Z,1.53
2022-09-23T22:28:12.114Z,1.50
2022-09-23T22:30:57.763Z,1.30
2022-09-23T22:33:24.419Z,1.40
2022-09-23T22:35:51.059Z,1.30
2022-09-23T22:38:18.969Z,1.30
2022-09-23T22:40:45.673Z,1.30
2022-09-23T22:43:12.366Z,1.20
2022-09-23T22:45:39.598Z,1.30
2022-09-23T22:48:06.226Z,1.27
2022-09-23T22:50:32.838Z,1.40
2022-09-23T22:52:59.580Z,1.37
2022-09-23T22:55:26.301Z,1.20
2022-09-23T22:57:52.882Z,1.20
2022-09-23T23:00:19.641Z,1.30
2022-09-23T23:02:46.222Z,1.30
2022-09-23T23:05:14.473Z,1.10
2022-09-23T23:07:41.719Z,1.10
2022-09-23T23:10:10.200Z,1.10
2022-09-23T23:12:37.043Z,1.00
2022-09-23T23:15:03.811Z,1.00
2022-09-23T23:17:30.399Z,1.10
2022-09-23T23:19:57.832Z,1.20
2022-09-23T23:22:29.284Z,1.10
2022-09-23T23:24:56.061Z,1.20
2022-09-23T23:27:22.695Z,1.40
2022-09-23T23:29:49.490Z,1.33
2022-09-23T23:32:16.997Z,1.30
2022-09-23T23:34:43.650Z,1.43
2022-09-23T23:37:10.279Z,1.30
2022-09-23T23:39:36.941Z,1.40
2022-09-23T23:42:04.707Z,1.20
2022-09-23T23:44:34.072Z,1.40
2022-09-23T23:47:01.578Z,1.23
2022-09-23T23:49:28.660Z,1.43
2022-09-23T23:51:55.377Z,1.20
2022-09-23T23:54:22.025Z,1.50
2022-09-23T23:56:48.688Z,1.40
2022-09-23T23:59:15.305Z,1.30
